Lingo, NM (88123)

6:03 PM MST on February 24, 2017 (GMT -0700)
Cannon Air Force Base | | Change Station
Active Advisory: Fire Weather Watch

Elev 4295 ft 34.38 °N, 103.32 °W | Updated 1 hour ago

Clear
Clear
52 °F
Feels Like 52 °F
N
29
Wind Variable Wind from SSW
Gusts 36 mph

Today
High -- | Low -- °F
--% Chance of Precip.
Yesterday
High -- | Low -- °F
Precip. -- in
Pressure 29.89 in
Visibility 10.0 miles
Clouds Clear
Dew Point -2 °F
Humidity 11%
Rainfall 0.00 in
Snow Depth Not available.
6:26 AM 5:45 PM
Waning Crescent, 3% visible
METAR KCVS 242358Z AUTO 20025G31KT 10SM CLR 11/M19 A2990 RMK AO2 PK WND 29033/27 SLP122 T01141190 10122 20063 53007 $
Pressure 29.89 in
Visibility 10.0 miles
Clouds Clear
Dew Point -2 °F
Humidity 11%
Rainfall 0.00 in
Snow Depth Not available.
6:26 AM 5:45 PM
Waning Crescent, 3% visible
METAR KCVS 242358Z AUTO 20025G31KT 10SM CLR 11/M19 A2990 RMK AO2 PK WND 29033/27 SLP122 T01141190 10122 20063 53007 $

Get Your Daily Forecast Email!

Thanks for signing up!

Be on the lookout for a verification email in your inbox.

You'll start receiving the daily forecast at 8 AM.

×

10-Day Weather Forecast

Almanac

Astronomy

Feb. 24, 2017 Rise Set
Actual Time
Civil Twilight
Nautical Twilight
Astronomical Twilight
Moon
Length of Visible Light
Length of Day
Tomorrow will be .
, % of the Moon is Illuminated

Today's Extremes

State Highs State Lows

Community

WunderPhotos

Upload Photos

1,962,540 photos uploaded!

WunderBlog® & News

Nearby

Air Quality

  Air Quality AQ Index Pollutant
Not available.

Snow Depth

Station Depth Elevation

Earthquake Activity

City Distance Mag. Time & Date
Minimum magnitude displayed is 2.5.

Coastal Water Temperatures

Place Temperature

Stations

Nearby Weather Stations

Station Location Temp. Windchill Dew Point Humidity Wind Precip. Elev Updated Type
                   

Watches & Warnings

Fire Weather Watch
Issued: 5:48 PM MST Feb. 24, 2017 – National Weather Service

... Fire Weather Watch remains in effect Saturday afternoon...
... Red flag warning will expire at 6 PM MST this evening...

* area and timing... east Central Plains this afternoon and
Saturday afternoon.

* 20 foot winds... today west to northwest 20 to 35 mph with
gusts to 45 mph. Saturday southwest 20 to 30 mph with gusts to
40 mph.

* Relative humidity... minimum values of 10 to 15 percent.

* Impacts... any fires that develop will likely spread rapidly.
Outdoor burning is not recommended.

Precautionary/preparedness actions...

Please advise the appropriate officials or fire crews in the
field of this Fire Weather Watch.